sensor_id;sensor_type;location;lat;lon;timestamp;temperature;humidity
58933;DHT22;44716;51.022;6.818;2023-04-25T14:35:17;20.90;61.70
58933;DHT22;44716;51.022;6.818;2023-04-25T14:37:42;21.20;60.50
58933;DHT22;44716;51.022;6.818;2023-04-25T14:40:08;21.10;59.30
58933;DHT22;44716;51.022;6.818;2023-04-25T14:42:36;21.10;59.40
58933;DHT22;44716;51.022;6.818;2023-04-25T14:45:02;21.20;59.20
58933;DHT22;44716;51.022;6.818;2023-04-25T14:47:27;21.20;59.10
58933;DHT22;44716;51.022;6.818;2023-04-25T14:49:53;21.20;59.00
58933;DHT22;44716;51.022;6.818;2023-04-25T14:52:21;21.20;59.20
58933;DHT22;44716;51.022;6.818;2023-04-25T14:54:47;21.20;59.40
58933;DHT22;44716;51.022;6.818;2023-04-25T14:57:13;21.20;59.30
58933;DHT22;44716;51.022;6.818;2023-04-25T14:59:41;21.20;59.20
58933;DHT22;44716;51.022;6.818;2023-04-25T15:02:07;21.20;59.90
58933;DHT22;44716;51.022;6.818;2023-04-25T15:04:32;21.30;61.00
58933;DHT22;44716;51.022;6.818;2023-04-25T15:06:58;21.30;61.20
58933;DHT22;44716;51.022;6.818;2023-04-25T15:09:24;21.50;61.20
58933;DHT22;44716;51.022;6.818;2023-04-25T15:11:50;21.60;63.20
58933;DHT22;44716;51.022;6.818;2023-04-25T15:14:18;21.70;63.50
58933;DHT22;44716;51.022;6.818;2023-04-25T15:16:46;21.90;63.10
58933;DHT22;44716;51.022;6.818;2023-04-25T15:19:11;22.00;62.30
58933;DHT22;44716;51.022;6.818;2023-04-25T15:21:37;22.10;61.90
58933;DHT22;44716;51.022;6.818;2023-04-25T15:24:03;22.30;61.40
58933;DHT22;44716;51.022;6.818;2023-04-25T15:26:28;22.50;60.80
58933;DHT22;44716;51.022;6.818;2023-04-25T15:28:54;22.60;60.10
58933;DHT22;44716;51.022;6.818;2023-04-25T15:31:19;22.70;59.60
58933;DHT22;44716;51.022;6.818;2023-04-25T15:33:45;22.90;59.20
58933;DHT22;44716;51.022;6.818;2023-04-25T15:36:10;23.00;58.80
58933;DHT22;44716;51.022;6.818;2023-04-25T15:38:36;23.20;58.40
58933;DHT22;44716;51.022;6.818;2023-04-25T15:41:02;23.50;57.90
58933;DHT22;44716;51.022;6.818;2023-04-25T15:43:27;24.40;56.10
58933;DHT22;44716;51.022;6.818;2023-04-25T15:45:55;24.70;55.30
58933;DHT22;44716;51.022;6.818;2023-04-25T15:48:21;24.80;55.30
58933;DHT22;44716;51.022;6.818;2023-04-25T15:50:46;24.90;55.70
58933;DHT22;44716;51.022;6.818;2023-04-25T15:53:12;25.00;55.90
58933;DHT22;44716;51.022;6.818;2023-04-25T15:55:38;25.30;56.60
58933;DHT22;44716;51.022;6.818;2023-04-25T15:58:03;26.60;54.40
58933;DHT22;44716;51.022;6.818;2023-04-25T16:00:29;26.50;53.40
58933;DHT22;44716;51.022;6.818;2023-04-25T16:02:55;26.30;53.50
58933;DHT22;44716;51.022;6.818;2023-04-25T16:05:24;26.30;53.60
58933;DHT22;44716;51.022;6.818;2023-04-25T16:07:50;26.30;53.90
58933;DHT22;44716;51.022;6.818;2023-04-25T16:10:17;26.40;54.10
58933;DHT22;44716;51.022;6.818;2023-04-25T16:12:45;26.40;54.00
58933;DHT22;44716;51.022;6.818;2023-04-25T16:15:14;26.50;53.90
58933;DHT22;44716;51.022;6.818;2023-04-25T16:17:39;26.60;53.80
58933;DHT22;44716;51.022;6.818;2023-04-25T16:20:05;26.60;53.60
58933;DHT22;44716;51.022;6.818;2023-04-25T16:22:35;26.70;53.40
58933;DHT22;44716;51.022;6.818;2023-04-25T16:25:01;26.70;53.10
58933;DHT22;44716;51.022;6.818;2023-04-25T16:27:26;26.80;52.80
58933;DHT22;44716;51.022;6.818;2023-04-25T16:29:52;26.80;52.50
58933;DHT22;44716;51.022;6.818;2023-04-25T16:32:18;26.90;53.00
58933;DHT22;44716;51.022;6.818;2023-04-25T16:34:43;26.90;52.20
58933;DHT22;44716;51.022;6.818;2023-04-25T16:37:09;26.90;52.00
58933;DHT22;44716;51.022;6.818;2023-04-25T16:39:35;27.00;51.90
58933;DHT22;44716;51.022;6.818;2023-04-25T16:42:00;27.00;51.80
58933;DHT22;44716;51.022;6.818;2023-04-25T16:44:26;27.00;51.70
58933;DHT22;44716;51.022;6.818;2023-04-25T16:46:51;27.10;51.50
58933;DHT22;44716;51.022;6.818;2023-04-25T16:49:17;27.10;51.30
58933;DHT22;44716;51.022;6.818;2023-04-25T16:51:42;27.20;51.20
58933;DHT22;44716;51.022;6.818;2023-04-25T16:54:08;27.20;51.10
58933;DHT22;44716;51.022;6.818;2023-04-25T16:56:34;27.20;51.00
58933;DHT22;44716;51.022;6.818;2023-04-25T16:58:59;27.30;50.90
58933;DHT22;44716;51.022;6.818;2023-04-25T17:01:25;27.30;51.00
58933;DHT22;44716;51.022;6.818;2023-04-25T17:03:50;27.30;50.90
58933;DHT22;44716;51.022;6.818;2023-04-25T17:06:16;27.30;50.80
58933;DHT22;44716;51.022;6.818;2023-04-25T17:08:42;27.30;50.80
58933;DHT22;44716;51.022;6.818;2023-04-25T17:11:07;27.30;50.70
58933;DHT22;44716;51.022;6.818;2023-04-25T17:13:34;27.30;50.80
58933;DHT22;44716;51.022;6.818;2023-04-25T17:16:00;27.20;50.70
58933;DHT22;44716;51.022;6.818;2023-04-25T17:18:26;27.20;50.40
58933;DHT22;44716;51.022;6.818;2023-04-25T17:20:52;27.20;50.60
58933;DHT22;44716;51.022;6.818;2023-04-25T17:23:18;27.20;50.60
58933;DHT22;44716;51.022;6.818;2023-04-25T17:25:43;27.20;50.50
58933;DHT22;44716;51.022;6.818;2023-04-25T17:28:09;27.20;50.50
58933;DHT22;44716;51.022;6.818;2023-04-25T17:30:37;27.10;50.40
58933;DHT22;44716;51.022;6.818;2023-04-25T17:33:02;27.10;50.50
58933;DHT22;44716;51.022;6.818;2023-04-25T17:35:28;27.10;50.40
58933;DHT22;44716;51.022;6.818;2023-04-25T17:37:54;27.10;50.40
58933;DHT22;44716;51.022;6.818;2023-04-25T17:40:19;27.00;50.30
58933;DHT22;44716;51.022;6.818;2023-04-25T17:42:45;27.00;50.20
58933;DHT22;44716;51.022;6.818;2023-04-25T17:45:10;27.00;50.30
58933;DHT22;44716;51.022;6.818;2023-04-25T17:47:37;26.90;50.20
58933;DHT22;44716;51.022;6.818;2023-04-25T17:50:04;27.00;50.30
58933;DHT22;44716;51.022;6.818;2023-04-25T17:52:29;27.00;50.40
58933;DHT22;44716;51.022;6.818;2023-04-25T17:54:55;26.90;50.40
58933;DHT22;44716;51.022;6.818;2023-04-25T17:57:20;26.90;50.40
58933;DHT22;44716;51.022;6.818;2023-04-25T17:59:47;26.90;50.40
58933;DHT22;44716;51.022;6.818;2023-04-25T18:02:13;26.80;50.50
58933;DHT22;44716;51.022;6.818;2023-04-25T18:04:40;26.80;50.50
58933;DHT22;44716;51.022;6.818;2023-04-25T18:07:05;26.80;50.70
58933;DHT22;44716;51.022;6.818;2023-04-25T18:09:31;26.80;50.90
58933;DHT22;44716;51.022;6.818;2023-04-25T18:11:58;26.80;51.00
58933;DHT22;44716;51.022;6.818;2023-04-25T18:14:24;26.80;51.00
58933;DHT22;44716;51.022;6.818;2023-04-25T18:16:50;26.70;51.10
58933;DHT22;44716;51.022;6.818;2023-04-25T18:19:17;26.70;51.10
58933;DHT22;44716;51.022;6.818;2023-04-25T18:21:49;26.70;51.00
58933;DHT22;44716;51.022;6.818;2023-04-25T18:24:15;26.60;51.00
58933;DHT22;44716;51.022;6.818;2023-04-25T18:26:44;26.60;51.10
58933;DHT22;44716;51.022;6.818;2023-04-25T18:29:11;26.50;51.00
58933;DHT22;44716;51.022;6.818;2023-04-25T18:31:36;26.50;51.10
58933;DHT22;44716;51.022;6.818;2023-04-25T18:34:02;26.40;51.10
58933;DHT22;44716;51.022;6.818;2023-04-25T18:36:28;26.40;51.10
58933;DHT22;44716;51.022;6.818;2023-04-25T18:48:01;26.20;51.30
58933;DHT22;44716;51.022;6.818;2023-04-25T18:50:28;26.20;51.30
58933;DHT22;44716;51.022;6.818;2023-04-25T18:52:53;26.20;51.20
58933;DHT22;44716;51.022;6.818;2023-04-25T18:55:19;26.20;51.40
58933;DHT22;44716;51.022;6.818;2023-04-25T18:57:47;26.20;51.40
58933;DHT22;44716;51.022;6.818;2023-04-25T19:00:17;26.20;51.60
58933;DHT22;44716;51.022;6.818;2023-04-25T19:02:59;26.10;51.60
58933;DHT22;44716;51.022;6.818;2023-04-25T19:21:14;25.60;52.80
58933;DHT22;44716;51.022;6.818;2023-04-25T19:32:53;25.40;53.00
58933;DHT22;44716;51.022;6.818;2023-04-25T19:35:24;25.40;53.00
58933;DHT22;44716;51.022;6.818;2023-04-25T19:37:57;25.40;53.10
58933;DHT22;44716;51.022;6.818;2023-04-25T19:40:22;25.30;53.00
58933;DHT22;44716;51.022;6.818;2023-04-25T19:42:48;25.30;53.10
58933;DHT22;44716;51.022;6.818;2023-04-25T19:45:15;25.30;53.20
58933;DHT22;44716;51.022;6.818;2023-04-25T19:50:29;25.20;53.10
58933;DHT22;44716;51.022;6.818;2023-04-25T19:52:58;25.20;53.20
58933;DHT22;44716;51.022;6.818;2023-04-25T19:55:25;25.10;53.30
58933;DHT22;44716;51.022;6.818;2023-04-25T19:57:52;25.00;53.40
58933;DHT22;44716;51.022;6.818;2023-04-25T20:00:18;25.00;53.50
58933;DHT22;44716;51.022;6.818;2023-04-25T20:02:44;24.90;53.60
58933;DHT22;44716;51.022;6.818;2023-04-25T20:05:10;24.90;53.80
58933;DHT22;44716;51.022;6.818;2023-04-25T20:07:36;24.90;53.80
58933;DHT22;44716;51.022;6.818;2023-04-25T20:10:02;24.80;53.80
58933;DHT22;44716;51.022;6.818;2023-04-25T20:12:28;24.80;53.90
58933;DHT22;44716;51.022;6.818;2023-04-25T20:14:54;24.80;54.10
58933;DHT22;44716;51.022;6.818;2023-04-25T20:17:20;24.70;54.20
58933;DHT22;44716;51.022;6.818;2023-04-25T20:19:46;24.60;54.30
58933;DHT22;44716;51.022;6.818;2023-04-25T20:22:11;24.60;54.30
58933;DHT22;44716;51.022;6.818;2023-04-25T20:24:37;24.60;54.40
58933;DHT22;44716;51.022;6.818;2023-04-25T20:27:03;24.60;54.40
58933;DHT22;44716;51.022;6.818;2023-04-25T20:29:29;24.50;54.40
58933;DHT22;44716;51.022;6.818;2023-04-25T20:31:54;24.50;58.00
58933;DHT22;44716;51.022;6.818;2023-04-25T20:36:46;24.50;76.60
58933;DHT22;44716;51.022;6.818;2023-04-25T20:39:12;24.50;78.60
58933;DHT22;44716;51.022;6.818;2023-04-25T20:41:38;24.50;79.50
58933;DHT22;44716;51.022;6.818;2023-04-25T20:44:05;24.50;78.60
58933;DHT22;44716;51.022;6.818;2023-04-25T20:46:35;24.40;68.60
58933;DHT22;44716;51.022;6.818;2023-04-25T20:49:00;24.40;65.20
58933;DHT22;44716;51.022;6.818;2023-04-25T20:51:28;24.40;63.60
58933;DHT22;44716;51.022;6.818;2023-04-25T20:53:57;24.30;61.80
58933;DHT22;44716;51.022;6.818;2023-04-25T20:56:23;24.30;60.90
58933;DHT22;44716;51.022;6.818;2023-04-25T20:58:50;24.30;61.10
58933;DHT22;44716;51.022;6.818;2023-04-25T21:01:16;24.30;60.80
58933;DHT22;44716;51.022;6.818;2023-04-25T21:03:50;24.30;59.70
58933;DHT22;44716;51.022;6.818;2023-04-25T21:06:15;24.30;58.50
58933;DHT22;44716;51.022;6.818;2023-04-25T21:08:44;24.30;57.30
58933;DHT22;44716;51.022;6.818;2023-04-25T21:11:10;24.20;56.10
58933;DHT22;44716;51.022;6.818;2023-04-25T21:13:39;24.20;55.40
58933;DHT22;44716;51.022;6.818;2023-04-25T21:16:05;24.20;55.00
58933;DHT22;44716;51.022;6.818;2023-04-25T21:18:31;24.10;54.80
58933;DHT22;44716;51.022;6.818;2023-04-25T21:20:59;24.20;54.80
58933;DHT22;44716;51.022;6.818;2023-04-25T21:23:26;24.10;54.70
58933;DHT22;44716;51.022;6.818;2023-04-25T21:26:00;24.10;54.60
58933;DHT22;44716;51.022;6.818;2023-04-25T21:28:32;24.10;54.60
58933;DHT22;44716;51.022;6.818;2023-04-25T21:31:02;24.10;54.60
58933;DHT22;44716;51.022;6.818;2023-04-25T21:33:28;24.00;54.60
58933;DHT22;44716;51.022;6.818;2023-04-25T21:35:54;23.90;54.70
58933;DHT22;44716;51.022;6.818;2023-04-25T21:38:20;23.90;54.80
58933;DHT22;44716;51.022;6.818;2023-04-25T21:40:48;23.90;54.80
58933;DHT22;44716;51.022;6.818;2023-04-25T21:43:14;23.90;54.90
58933;DHT22;44716;51.022;6.818;2023-04-25T21:45:40;23.80;54.90
58933;DHT22;44716;51.022;6.818;2023-04-25T21:48:06;23.80;54.90
58933;DHT22;44716;51.022;6.818;2023-04-25T21:50:32;23.80;54.90
58933;DHT22;44716;51.022;6.818;2023-04-25T21:52:57;23.80;55.00
58933;DHT22;44716;51.022;6.818;2023-04-25T21:55:28;23.80;54.90
58933;DHT22;44716;51.022;6.818;2023-04-25T21:57:55;23.80;55.00
58933;DHT22;44716;51.022;6.818;2023-04-25T22:00:21;23.70;55.00
58933;DHT22;44716;51.022;6.818;2023-04-25T22:02:55;23.70;55.00
58933;DHT22;44716;51.022;6.818;2023-04-25T22:05:20;23.70;54.90
58933;DHT22;44716;51.022;6.818;2023-04-25T22:07:50;23.70;54.90
58933;DHT22;44716;51.022;6.818;2023-04-25T22:10:16;23.70;54.90
58933;DHT22;44716;51.022;6.818;2023-04-25T22:12:42;23.70;55.00
58933;DHT22;44716;51.022;6.818;2023-04-25T22:15:09;23.70;55.10
58933;DHT22;44716;51.022;6.818;2023-04-25T22:17:37;23.70;55.10
58933;DHT22;44716;51.022;6.818;2023-04-25T22:20:03;23.70;55.10
58933;DHT22;44716;51.022;6.818;2023-04-25T22:22:34;23.60;55.20
58933;DHT22;44716;51.022;6.818;2023-04-25T22:25:00;23.60;55.20
58933;DHT22;44716;51.022;6.818;2023-04-25T22:27:25;23.60;55.00
58933;DHT22;44716;51.022;6.818;2023-04-25T22:29:51;23.60;54.90
58933;DHT22;44716;51.022;6.818;2023-04-25T22:32:17;23.60;55.00
58933;DHT22;44716;51.022;6.818;2023-04-25T22:34:43;23.60;55.00
58933;DHT22;44716;51.022;6.818;2023-04-25T22:37:08;23.60;55.20
58933;DHT22;44716;51.022;6.818;2023-04-25T22:39:34;23.50;56.40
58933;DHT22;44716;51.022;6.818;2023-04-25T22:42:00;23.50;59.30
58933;DHT22;44716;51.022;6.818;2023-04-25T22:44:25;23.50;60.80
58933;DHT22;44716;51.022;6.818;2023-04-25T22:46:51;23.50;62.50
58933;DHT22;44716;51.022;6.818;2023-04-25T22:49:17;23.50;63.80
58933;DHT22;44716;51.022;6.818;2023-04-25T22:51:43;23.50;62.60
58933;DHT22;44716;51.022;6.818;2023-04-25T22:54:08;23.50;62.60
58933;DHT22;44716;51.022;6.818;2023-04-25T22:56:34;23.50;62.50
58933;DHT22;44716;51.022;6.818;2023-04-25T22:58:59;23.50;62.40
58933;DHT22;44716;51.022;6.818;2023-04-25T23:01:25;23.40;62.70
58933;DHT22;44716;51.022;6.818;2023-04-25T23:03:53;23.50;62.80
58933;DHT22;44716;51.022;6.818;2023-04-25T23:06:18;23.40;61.70
58933;DHT22;44716;51.022;6.818;2023-04-25T23:08:44;23.40;61.60
58933;DHT22;44716;51.022;6.818;2023-04-25T23:11:09;23.40;61.10
58933;DHT22;44716;51.022;6.818;2023-04-25T23:13:35;23.40;59.60
58933;DHT22;44716;51.022;6.818;2023-04-25T23:16:07;23.40;58.90
58933;DHT22;44716;51.022;6.818;2023-04-25T23:18:34;23.40;56.80
58933;DHT22;44716;51.022;6.818;2023-04-25T23:21:00;23.40;57.00
58933;DHT22;44716;51.022;6.818;2023-04-25T23:23:26;23.40;57.90
58933;DHT22;44716;51.022;6.818;2023-04-25T23:25:52;23.40;60.40
58933;DHT22;44716;51.022;6.818;2023-04-25T23:28:18;23.30;63.40
58933;DHT22;44716;51.022;6.818;2023-04-25T23:30:44;23.30;65.90
58933;DHT22;44716;51.022;6.818;2023-04-25T23:33:09;23.30;67.00
58933;DHT22;44716;51.022;6.818;2023-04-25T23:35:35;23.30;67.00
58933;DHT22;44716;51.022;6.818;2023-04-25T23:38:01;23.30;66.80
58933;DHT22;44716;51.022;6.818;2023-04-25T23:40:27;23.30;66.70
58933;DHT22;44716;51.022;6.818;2023-04-25T23:42:53;23.30;66.80
58933;DHT22;44716;51.022;6.818;2023-04-25T23:45:18;23.20;66.40
58933;DHT22;44716;51.022;6.818;2023-04-25T23:47:45;23.20;65.80
58933;DHT22;44716;51.022;6.818;2023-04-25T23:50:10;23.20;65.20
58933;DHT22;44716;51.022;6.818;2023-04-25T23:52:36;23.20;63.80
58933;DHT22;44716;51.022;6.818;2023-04-25T23:55:02;23.20;62.00
58933;DHT22;44716;51.022;6.818;2023-04-25T23:57:29;23.20;61.30
58933;DHT22;44716;51.022;6.818;2023-04-25T23:59:55;23.20;61.10
